Time;durP1;ratioP1;P1;durP2;ratioP2;P2;SDS_P1;SDS_P2;PMS_P1;PMS_P2;Temp;Humidity;BMP_temperature;BMP_pressure;BME280_temperature;BME280_humidity;BME280_pressure;Samples;Min_cycle;Max_cycle;Signal;HPM_P1;HPM_P2
2021/09/02 00:03:33;;;;;;;16.40;10.35;;;;;;;12.25;64.73;100967.28;10383259;28;20052;-68
2021/09/02 00:08:35;;;;;;;17.00;10.73;;;;;;;12.22;64.59;100967.41;10390243;28;20075;-66
2021/09/02 00:13:37;;;;;;;17.52;9.73;;;;;;;12.16;64.53;100967.72;10411740;28;20050;-66
2021/09/02 00:18:39;;;;;;;16.75;10.35;;;;;;;12.07;64.47;100973.41;10418680;28;20380;-66
2021/09/02 00:23:40;;;;;;;17.98;11.02;;;;;;;11.98;64.92;100973.88;10388923;28;20139;-66
2021/09/02 00:28:42;;;;;;;18.00;11.25;;;;;;;11.94;65.03;100972.34;10389433;28;20053;-66
2021/09/02 00:33:44;;;;;;;315.42;20.85;;;;;;;11.72;64.41;100961.19;10388642;28;20132;-66
2021/09/02 00:38:45;;;;;;;15.27;10.73;;;;;;;11.51;65.20;100962.22;10389174;28;20382;-65
2021/09/02 00:43:48;;;;;;;18.55;10.95;;;;;;;11.53;65.40;100960.38;10389161;28;20076;-66
2021/09/02 00:48:51;;;;;;;14.10;10.05;;;;;;;11.45;65.40;100970.34;10388629;28;20504;-66
2021/09/02 00:53:55;;;;;;;13.25;9.73;;;;;;;11.47;65.24;100964.13;10386515;28;20056;-66
2021/09/02 00:58:57;;;;;;;14.48;9.38;;;;;;;11.40;65.35;100970.56;10392403;28;20168;-66
2021/09/02 01:04:03;;;;;;;13.48;9.00;;;;;;;11.40;65.45;100977.59;10387193;28;20068;-66
2021/09/02 01:09:04;;;;;;;22.02;9.70;;;;;;;11.40;65.46;100970.56;10388496;28;20057;-65
2021/09/02 01:14:22;;;;;;;17.23;9.38;;;;;;;11.37;65.72;100965.50;10398763;28;20053;-66
2021/09/02 01:19:24;;;;;;;13.20;8.70;;;;;;;11.29;65.79;100967.63;10387472;28;20441;-66
2021/09/02 01:24:26;;;;;;;39.50;12.00;;;;;;;11.29;65.71;100963.19;10387856;28;20128;-66
2021/09/02 01:29:27;;;;;;;14.52;9.40;;;;;;;11.32;65.90;100966.63;10388172;28;20139;-66
2021/09/02 01:34:29;;;;;;;19.30;8.70;;;;;;;11.32;65.88;100958.78;10400847;28;20057;-66
2021/09/02 01:39:31;;;;;;;46.55;9.50;;;;;;;11.29;65.97;100968.44;10406390;28;20908;-67
2021/09/02 01:44:32;;;;;;;105.57;11.02;;;;;;;11.31;65.77;100960.53;10387463;28;20306;-66
2021/09/02 01:49:34;;;;;;;59.60;10.10;;;;;;;11.24;65.71;100956.50;10389766;28;20479;-66
2021/09/02 01:54:36;;;;;;;24.77;8.00;;;;;;;11.21;65.78;100954.03;10400482;28;20421;-66
2021/09/02 01:59:37;;;;;;;147.05;12.15;;;;;;;11.16;65.82;100951.63;10390254;28;20083;-66
2021/09/02 02:04:39;;;;;;;17.45;8.07;;;;;;;11.08;66.23;100953.72;10420180;28;20048;-66
2021/09/02 02:09:41;;;;;;;46.53;8.70;;;;;;;11.02;66.33;100959.22;10399314;28;20058;-65
2021/09/02 02:14:43;;;;;;;58.83;8.63;;;;;;;11.07;66.29;100965.09;10420068;28;20128;-67
2021/09/02 02:19:45;;;;;;;216.60;10.25;;;;;;;11.03;66.43;100957.47;10394145;28;20092;-66
2021/09/02 02:24:46;;;;;;;73.07;8.77;;;;;;;10.98;66.59;100947.19;10393946;28;20088;-66
2021/09/02 02:29:48;;;;;;;157.73;9.68;;;;;;;11.01;66.47;100952.25;10396615;28;20542;-67
2021/09/02 02:34:50;;;;;;;83.85;9.10;;;;;;;11.01;66.42;100943.59;10393641;28;20148;-66
2021/09/02 02:39:52;;;;;;;53.50;7.68;;;;;;;10.99;66.47;100938.41;10429458;28;20053;-66
2021/09/02 02:44:54;;;;;;;65.90;8.38;;;;;;;11.02;66.25;100937.41;10421987;28;20411;-66
2021/09/02 02:49:56;;;;;;;121.25;9.23;;;;;;;10.98;66.46;100938.47;10393414;28;20157;-66
2021/09/02 02:54:57;;;;;;;39.63;7.63;;;;;;;10.95;66.77;100942.06;10411016;28;20049;-67
2021/09/02 02:59:59;;;;;;;19.83;6.78;;;;;;;11.00;66.75;100939.25;10392773;28;20057;-66
2021/09/02 03:05:01;;;;;;;32.25;6.95;;;;;;;11.04;66.76;100933.00;10388619;28;20048;-66
2021/09/02 03:10:06;;;;;;;74.25;7.53;;;;;;;11.03;66.57;100939.97;10387738;28;20058;-66
2021/09/02 03:15:09;;;;;;;35.78;8.05;;;;;;;11.05;66.82;100934.72;10391913;28;20054;-66
2021/09/02 03:20:10;;;;;;;78.38;9.60;;;;;;;11.09;66.93;100937.09;10391316;28;20059;-66
2021/09/02 03:25:12;;;;;;;100.95;9.73;;;;;;;11.12;66.91;100936.09;10406573;28;20053;-67
2021/09/02 03:30:14;;;;;;;80.18;9.23;;;;;;;11.17;66.89;100936.75;10387033;28;20046;-65
2021/09/02 03:35:16;;;;;;;92.18;9.27;;;;;;;11.20;66.71;100933.97;10402573;28;21053;-66
2021/09/02 03:40:18;;;;;;;110.97;9.90;;;;;;;11.19;66.80;100946.22;10389680;28;20063;-66
2021/09/02 03:45:20;;;;;;;202.43;12.95;;;;;;;11.18;66.75;100936.69;10393715;28;20482;-66
2021/09/02 03:50:21;;;;;;;248.32;10.75;;;;;;;11.06;66.65;100936.41;10393518;28;20049;-66
2021/09/02 03:55:23;;;;;;;277.23;11.65;;;;;;;10.90;67.25;100940.59;10393256;28;20056;-66
2021/09/02 04:00:25;;;;;;;178.63;12.43;;;;;;;10.86;67.34;100936.41;10395254;28;20405;-66
2021/09/02 04:05:27;;;;;;;86.07;8.75;;;;;;;10.87;67.44;100938.09;10397277;28;20045;-66
2021/09/02 04:10:28;;;;;;;93.72;8.77;;;;;;;10.83;67.39;100937.41;10398993;28;20650;-67
2021/09/02 04:15:30;;;;;;;71.63;8.57;;;;;;;10.96;67.21;100937.69;10392088;28;20057;-67
2021/09/02 04:20:32;;;;;;;222.55;10.30;;;;;;;10.99;66.88;100941.00;10391793;28;20059;-68
2021/09/02 04:25:33;;;;;;;296.88;10.65;;;;;;;11.11;66.53;100937.03;10391714;28;20570;-68
2021/09/02 04:30:35;;;;;;;79.63;7.57;;;;;;;11.08;66.58;100927.56;10394793;28;20053;-68
2021/09/02 04:35:37;;;;;;;182.02;11.27;;;;;;;11.09;66.50;100933.66;10389327;28;20053;-68
2021/09/02 04:40:39;;;;;;;63.70;7.95;;;;;;;11.23;66.48;100942.53;10398932;28;20058;-68
2021/09/02 04:45:41;;;;;;;290.42;13.13;;;;;;;11.14;66.14;100942.97;10392729;28;20073;-67
2021/09/02 04:50:44;;;;;;;223.40;9.85;;;;;;;10.96;66.33;100954.25;10390690;28;20059;-67
2021/09/02 04:55:46;;;;;;;57.40;6.95;;;;;;;10.80;66.87;100941.94;10392033;28;20589;-67
2021/09/02 05:00:48;;;;;;;50.72;6.22;;;;;;;10.93;66.78;100941.28;10392386;28;20573;-68
2021/09/02 05:05:50;;;;;;;58.95;6.95;;;;;;;11.13;66.45;100932.59;10401283;28;20053;-68
2021/09/02 05:10:51;;;;;;;47.53;4.38;;;;;;;11.13;66.27;100937.81;10389847;28;20397;-68
2021/09/02 05:15:53;;;;;;;27.80;4.68;;;;;;;11.16;66.40;100945.53;10398517;28;20502;-67
2021/09/02 05:20:55;;;;;;;130.43;5.88;;;;;;;11.19;66.12;100943.59;10397895;28;20053;-67
2021/09/02 05:25:56;;;;;;;32.80;4.85;;;;;;;11.14;66.33;100948.22;10390101;28;20360;-67
2021/09/02 05:30:58;;;;;;;14.00;4.13;;;;;;;11.26;66.45;100947.66;10390280;28;20140;-68
2021/09/02 05:36:00;;;;;;;94.43;5.38;;;;;;;11.24;66.26;100946.88;10403646;28;20312;-67
2021/09/02 05:41:02;;;;;;;107.80;6.38;;;;;;;11.25;66.17;100945.94;10389166;28;20052;-68
2021/09/02 05:46:04;;;;;;;20.45;4.45;;;;;;;11.28;66.34;100955.44;10388082;28;20121;-67
2021/09/02 05:51:05;;;;;;;30.90;4.28;;;;;;;11.41;66.25;100963.56;10387702;28;20053;-67
2021/09/02 05:56:07;;;;;;;74.32;4.97;;;;;;;11.54;66.00;100962.91;10397931;28;20314;-67
2021/09/02 06:01:09;;;;;;;42.08;4.80;;;;;;;11.76;65.66;100968.84;10387358;28;20061;-68
2021/09/02 06:06:11;;;;;;;40.38;4.45;;;;;;;11.99;65.08;100978.19;10387225;28;20053;-67
2021/09/02 06:11:13;;;;;;;14.73;4.35;;;;;;;12.05;65.12;100977.88;10392346;28;20053;-68
2021/09/02 06:16:15;;;;;;;8.45;4.38;;;;;;;12.25;64.87;100969.06;10387172;28;20045;-76
2021/09/02 06:21:17;;;;;;;81.55;5.38;;;;;;;12.32;64.20;100965.22;10386391;28;20064;-68
2021/09/02 06:26:18;;;;;;;54.72;4.93;;;;;;;12.66;63.65;100971.28;10401897;28;20690;-69
2021/09/02 06:31:20;;;;;;;20.02;5.18;;;;;;;12.63;63.83;100967.97;10411648;28;20489;-69
2021/09/02 06:36:22;;;;;;;94.15;6.47;;;;;;;12.62;63.66;100971.53;10405004;28;20060;-69
2021/09/02 06:41:24;;;;;;;44.47;5.03;;;;;;;12.75;63.10;100968.19;10386694;28;20144;-69
2021/09/02 06:46:26;;;;;;;48.70;5.45;;;;;;;12.50;63.51;100964.28;10385389;28;20050;-68
2021/09/02 06:51:28;;;;;;;92.53;7.78;;;;;;;12.29;63.83;100962.75;10385104;28;20136;-68
2021/09/02 06:56:29;;;;;;;114.15;6.75;;;;;;;12.20;63.78;100973.66;10385771;28;20226;-69
2021/09/02 07:01:31;;;;;;;236.18;10.07;;;;;;;12.17;63.77;100981.69;10386913;28;20516;-68
2021/09/02 07:06:33;;;;;;;11.27;5.90;;;;;;;12.32;63.64;100981.81;10386777;28;20053;-70
2021/09/02 07:11:35;;;;;;;15.38;6.50;;;;;;;12.73;63.09;100983.16;10386177;28;20367;-69
2021/09/02 07:16:37;;;;;;;9.27;6.07;;;;;;;13.09;62.71;100967.25;10393219;28;20041;-69
2021/09/02 07:21:39;;;;;;;13.48;6.57;;;;;;;13.25;62.46;100972.53;10393632;28;20064;-69
2021/09/02 07:26:41;;;;;;;17.52;7.78;;;;;;;13.38;62.17;100969.16;10396178;28;20056;-69
2021/09/02 07:31:43;;;;;;;13.23;8.32;;;;;;;13.40;61.89;100966.41;10399731;28;20042;-69
2021/09/02 07:36:45;;;;;;;14.77;8.57;;;;;;;13.77;61.71;100961.72;10393318;28;20564;-69
2021/09/02 07:41:47;;;;;;;16.48;9.68;;;;;;;14.41;60.79;100958.81;10392655;28;20401;-70
2021/09/02 07:46:49;;;;;;;16.13;9.13;;;;;;;15.07;59.39;100966.22;10392784;28;20132;-69
2021/09/02 07:51:50;;;;;;;15.23;9.30;;;;;;;15.57;58.18;100963.09;10394299;28;20045;-69
2021/09/02 07:56:52;;;;;;;14.90;9.43;;;;;;;15.19;58.41;100968.09;10393049;28;20046;-70
2021/09/02 08:01:54;;;;;;;15.68;9.05;;;;;;;15.17;58.65;100962.06;10400263;28;20077;-70
2021/09/02 08:06:56;;;;;;;14.30;8.90;;;;;;;15.17;58.65;100954.16;10391729;28;20045;-69
2021/09/02 08:11:58;;;;;;;13.85;9.57;;;;;;;15.10;58.68;100956.34;10391710;28;20056;-69
2021/09/02 08:17:00;;;;;;;15.82;9.18;;;;;;;15.38;58.12;100958.97;10412520;28;20140;-70
2021/09/02 08:22:02;;;;;;;14.50;8.27;;;;;;;16.22;57.24;100952.53;10391513;28;20053;-69
2021/09/02 08:27:03;;;;;;;20.80;8.77;;;;;;;16.76;56.17;100947.97;10392351;28;20045;-70
2021/09/02 08:32:05;;;;;;;13.15;8.95;;;;;;;17.27;54.92;100943.47;10391498;28;20057;-69
2021/09/02 08:37:07;;;;;;;10.25;7.80;;;;;;;17.73;54.19;100952.44;10391226;28;20156;-70
2021/09/02 08:42:09;;;;;;;15.70;7.95;;;;;;;18.14;53.18;100940.56;10396334;28;20148;-69
2021/09/02 08:47:12;;;;;;;11.00;7.32;;;;;;;17.97;53.14;100943.66;10391703;28;20053;-69
2021/09/02 08:52:14;;;;;;;13.85;6.72;;;;;;;17.55;53.95;100945.84;10406325;28;20140;-70
2021/09/02 08:57:16;;;;;;;12.20;7.75;;;;;;;18.08;53.13;100941.03;10392836;28;20050;-75
2021/09/02 09:02:25;;;;;;;14.40;7.32;;;;;;;18.35;52.45;100942.47;10401026;28;20140;-76
2021/09/02 09:07:36;;;;;;;12.40;7.57;;;;;;;18.53;51.59;100942.88;10405412;28;20056;-76
2021/09/02 09:12:41;;;;;;;13.70;6.85;;;;;;;18.56;52.13;100927.56;10404160;28;20144;-75
2021/09/02 09:17:44;;;;;;;14.07;7.00;;;;;;;18.76;52.01;100922.53;10403363;28;20152;-75
2021/09/02 09:22:56;;;;;;;16.80;6.88;;;;;;;19.20;50.51;100926.06;10392759;28;20132;-75
2021/09/02 09:28:00;;;;;;;13.60;6.57;;;;;;;19.30;50.86;100916.41;10391095;28;20448;-78
2021/09/02 09:33:06;;;;;;;11.30;7.18;;;;;;;19.48;50.24;100914.91;10407127;28;20490;-76
2021/09/02 09:38:18;;;;;;;10.10;6.40;;;;;;;19.77;49.71;100906.38;10388877;28;20148;-73
2021/09/02 09:43:24;;;;;;;11.63;6.75;;;;;;;19.96;49.32;100909.22;10407062;28;20058;-73
2021/09/02 09:48:37;;;;;;;12.63;6.28;;;;;;;20.18;49.50;100898.47;10387371;28;20137;-75
2021/09/02 09:53:51;;;;;;;15.57;6.30;;;;;;;20.03;49.18;100891.81;10387390;28;20128;-72
2021/09/02 09:58:55;;;;;;;11.15;6.25;;;;;;;20.20;49.60;100883.25;10387550;28;20053;-74
2021/09/02 10:03:58;;;;;;;14.10;6.35;;;;;;;20.59;49.22;100890.53;10387148;28;20156;-77
2021/09/02 10:09:00;;;;;;;12.27;6.32;;;;;;;20.67;48.62;100885.38;10386683;28;20825;-72
2021/09/02 10:14:10;;;;;;;10.50;6.25;;;;;;;20.76;48.65;100881.94;10420543;28;20641;-76
2021/09/02 10:19:12;;;;;;;11.23;5.80;;;;;;;20.98;48.35;100867.59;10419135;28;20063;-77
2021/09/02 10:24:40;;;;;;;10.55;5.93;;;;;;;21.11;47.55;100862.84;10420413;28;20557;-77
2021/09/02 10:29:43;;;;;;;9.52;5.03;;;;;;;21.21;47.93;100853.09;10413533;28;20059;-79
2021/09/02 10:34:45;;;;;;;12.07;5.63;;;;;;;21.25;47.21;100859.81;10415452;28;20809;-76
2021/09/02 10:39:47;;;;;;;7.65;4.88;;;;;;;21.54;46.85;100846.56;10417955;28;20132;-75
2021/09/02 10:44:52;;;;;;;13.02;4.90;;;;;;;21.44;47.39;100840.38;10418398;28;20112;-70
2021/09/02 10:50:02;;;;;;;10.10;4.90;;;;;;;21.70;45.69;100831.72;10417186;28;20111;-81
2021/09/02 10:55:32;;;;;;;7.35;4.68;;;;;;;21.57;45.34;100830.31;10417525;28;20053;-81
2021/09/02 11:00:34;;;;;;;8.05;4.65;;;;;;;21.85;45.87;100834.78;10417623;28;20060;-81
2021/09/02 11:05:37;;;;;;;11.90;4.68;;;;;;;21.96;45.79;100831.13;10417038;28;20881;-81
2021/09/02 11:10:39;;;;;;;9.50;4.40;;;;;;;22.26;45.79;100823.81;10417658;28;20194;-81
2021/09/02 11:15:41;;;;;;;8.52;3.90;;;;;;;22.49;43.82;100814.47;10416868;28;20581;-69
2021/09/02 11:20:43;;;;;;;6.35;3.40;;;;;;;22.75;43.59;100819.13;10415305;28;20076;-69
2021/09/02 11:25:48;;;;;;;6.43;3.55;;;;;;;23.13;42.61;100813.56;10386773;28;20107;-70
2021/09/02 11:30:52;;;;;;;7.68;3.72;;;;;;;23.57;41.40;100807.38;10381608;28;20053;-70
2021/09/02 11:35:56;;;;;;;8.85;4.10;;;;;;;23.88;40.35;100797.94;10385462;28;20099;-70
2021/09/02 11:41:18;;;;;;;7.70;3.92;;;;;;;23.20;38.48;100782.63;10384591;28;20506;-69
2021/09/02 11:46:21;;;;;;;6.10;3.72;;;;;;;22.73;40.69;100794.41;10386815;28;20056;-69
2021/09/02 11:51:25;;;;;;;5.88;3.42;;;;;;;22.85;40.37;100793.25;10385807;28;20148;-70
2021/09/02 11:56:28;;;;;;;6.13;3.38;;;;;;;23.26;39.84;100777.53;10385799;28;20050;-70
2021/09/02 12:01:30;;;;;;;5.80;3.38;;;;;;;23.51;39.63;100775.13;10387032;28;20409;-71
2021/09/02 12:06:32;;;;;;;6.13;3.28;;;;;;;23.37;38.69;100765.78;10388808;28;20060;-70
2021/09/02 12:11:34;;;;;;;6.63;3.13;;;;;;;23.16;38.28;100771.44;10385635;28;20061;-70
2021/09/02 12:16:37;;;;;;;5.63;3.40;;;;;;;23.26;38.55;100771.34;10386730;28;20580;-70
2021/09/02 12:21:39;;;;;;;4.75;3.00;;;;;;;23.35;38.10;100778.47;10387616;28;20046;-70
2021/09/02 12:26:55;;;;;;;6.22;3.25;;;;;;;23.29;36.43;100771.88;10387097;28;20055;-71
2021/09/02 12:31:57;;;;;;;5.78;3.42;;;;;;;22.75;38.60;100771.97;10386551;28;20890;-70
2021/09/02 12:37:02;;;;;;;6.53;2.90;;;;;;;22.80;38.87;100769.69;10385137;28;20057;-71
2021/09/02 12:42:06;;;;;;;4.63;2.97;;;;;;;23.28;38.03;100764.03;10386233;28;20396;-71
2021/09/02 12:47:14;;;;;;;7.97;3.47;;;;;;;23.57;38.18;100759.31;10385599;28;20048;-71
2021/09/02 12:52:27;;;;;;;8.50;3.13;;;;;;;23.55;37.45;100761.31;10383050;28;20064;-70
2021/09/02 12:57:34;;;;;;;5.90;3.10;;;;;;;23.36;37.66;100769.44;10385774;28;20742;-70
2021/09/02 13:02:37;;;;;;;5.43;3.20;;;;;;;23.44;37.63;100751.69;10383892;28;20501;-70
2021/09/02 13:07:47;;;;;;;5.25;3.20;;;;;;;23.56;36.96;100749.63;10384594;28;20330;-70
2021/09/02 13:12:49;;;;;;;5.82;3.50;;;;;;;23.30;37.09;100746.03;10382447;28;20072;-70
2021/09/02 13:17:52;;;;;;;5.00;3.00;;;;;;;23.23;36.63;100734.28;10379140;28;20142;-71
2021/09/02 13:22:55;;;;;;;7.22;3.65;;;;;;;23.06;36.97;100727.97;10386089;28;20045;-70
2021/09/02 13:27:57;;;;;;;8.00;3.30;;;;;;;23.48;37.03;100713.03;10381898;28;20128;-70
2021/09/02 13:32:59;;;;;;;8.00;3.55;;;;;;;23.46;36.50;100698.13;10383715;28;20087;-70
2021/09/02 13:38:01;;;;;;;7.05;3.80;;;;;;;23.49;37.46;100703.19;10381159;28;20137;-70
2021/09/02 13:43:03;;;;;;;5.65;3.47;;;;;;;23.82;36.34;100699.72;10382491;28;20131;-70
2021/09/02 13:48:07;;;;;;;6.10;3.45;;;;;;;24.09;37.14;100698.72;10382733;28;20470;-70
2021/09/02 13:53:09;;;;;;;7.30;3.72;;;;;;;24.14;36.25;100699.91;10384233;28;20063;-71
2021/09/02 13:58:11;;;;;;;5.82;3.67;;;;;;;24.07;37.17;100698.03;10378487;28;20854;-70
2021/09/02 14:03:13;;;;;;;7.05;3.50;;;;;;;23.85;36.98;100699.41;10381915;28;20142;-70
2021/09/02 14:08:15;;;;;;;7.25;3.40;;;;;;;23.44;36.91;100686.78;10367429;28;20511;-70
2021/09/02 14:13:17;;;;;;;7.25;3.22;;;;;;;23.14;37.48;100688.03;10382900;28;20144;-70
2021/09/02 14:18:19;;;;;;;6.80;3.58;;;;;;;23.32;38.04;100691.50;10376818;28;20152;-70
2021/09/02 14:23:20;;;;;;;5.07;3.25;;;;;;;23.10;38.12;100677.81;10382330;28;20419;-70
2021/09/02 14:28:23;;;;;;;6.30;3.65;;;;;;;23.32;37.97;100666.63;10383388;28;20052;-70
2021/09/02 14:33:26;;;;;;;5.38;3.35;;;;;;;23.39;37.62;100670.38;10381365;28;20065;-70
2021/09/02 14:38:27;;;;;;;6.35;3.47;;;;;;;23.28;37.66;100665.28;10380671;28;20448;-70
2021/09/02 14:43:29;;;;;;;9.68;4.15;;;;;;;23.64;37.95;100672.22;10382032;28;20057;-70
2021/09/02 14:48:31;;;;;;;15.65;4.38;;;;;;;23.81;37.20;100667.81;10382677;28;20245;-70
2021/09/02 14:53:33;;;;;;;6.25;3.35;;;;;;;23.78;37.59;100652.13;10383393;28;20553;-70
2021/09/02 14:58:36;;;;;;;6.20;3.20;;;;;;;23.49;38.19;100660.47;10385404;28;20045;-70
2021/09/02 15:03:38;;;;;;;5.85;3.10;;;;;;;23.12;38.85;100651.81;10390320;28;20509;-69
2021/09/02 15:08:40;;;;;;;5.78;3.15;;;;;;;23.52;37.97;100652.13;10389170;28;20072;-70
2021/09/02 15:13:42;;;;;;;8.10;3.80;;;;;;;23.70;38.33;100642.22;10378320;28;20053;-69
2021/09/02 15:18:43;;;;;;;10.82;3.22;;;;;;;23.82;37.81;100634.78;10390289;28;20140;-70
2021/09/02 15:23:45;;;;;;;4.43;2.53;;;;;;;23.87;37.46;100624.44;10387658;28;20788;-71
2021/09/02 15:28:47;;;;;;;6.35;3.15;;;;;;;23.95;36.93;100614.63;10388541;28;20047;-71
2021/09/02 15:33:49;;;;;;;5.45;2.72;;;;;;;23.99;37.80;100610.63;10389164;28;20452;-70
2021/09/02 15:38:51;;;;;;;6.95;3.60;;;;;;;23.76;38.11;100614.88;10387271;28;20132;-70
2021/09/02 15:43:53;;;;;;;6.35;3.47;;;;;;;23.67;38.03;100610.50;10388654;28;20155;-70
2021/09/02 15:48:55;;;;;;;6.40;3.25;;;;;;;23.53;38.28;100595.06;10389105;28;20041;-69
2021/09/02 15:53:57;;;;;;;8.02;3.15;;;;;;;23.63;38.42;100598.47;10389286;28;20068;-69
2021/09/02 15:58:59;;;;;;;7.75;3.28;;;;;;;23.69;38.42;100599.66;10389264;28;20050;-69
2021/09/02 16:04:03;;;;;;;7.38;3.15;;;;;;;23.78;37.54;100604.84;10388722;28;20052;-70
2021/09/02 16:09:05;;;;;;;7.95;3.70;;;;;;;23.65;38.50;100590.28;10389303;28;20045;-70
2021/09/02 16:14:07;;;;;;;5.80;3.28;;;;;;;23.37;38.43;100593.09;10386524;28;20433;-70
2021/09/02 16:19:09;;;;;;;5.90;3.22;;;;;;;23.28;38.39;100587.88;10387515;28;20242;-69
2021/09/02 16:24:11;;;;;;;7.13;3.65;;;;;;;23.20;38.86;100579.81;10387789;28;20064;-71
2021/09/02 16:29:13;;;;;;;6.45;3.10;;;;;;;23.11;38.77;100570.06;10386632;28;20153;-70
2021/09/02 16:34:15;;;;;;;7.30;3.30;;;;;;;22.98;38.95;100559.81;10376616;28;20148;-70
2021/09/02 16:39:17;;;;;;;6.65;3.55;;;;;;;23.06;39.08;100565.22;10384060;28;20405;-70
2021/09/02 16:44:18;;;;;;;4.75;3.20;;;;;;;23.81;38.52;100553.81;10386969;28;20055;-71
2021/09/02 16:49:20;;;;;;;5.70;3.03;;;;;;;24.03;37.93;100550.53;10384924;28;20788;-71
2021/09/02 16:54:22;;;;;;;6.95;3.10;;;;;;;23.71;38.23;100558.44;10385677;28;20056;-70
2021/09/02 16:59:24;;;;;;;5.47;3.15;;;;;;;23.35;39.06;100562.22;10375144;28;20424;-69
2021/09/02 17:04:27;;;;;;;6.22;3.50;;;;;;;23.05;39.73;100557.34;10384900;28;20967;-70
2021/09/02 17:09:29;;;;;;;6.28;3.15;;;;;;;22.85;40.27;100559.38;10386036;28;20470;-70
2021/09/02 17:14:31;;;;;;;8.60;3.40;;;;;;;22.70;40.76;100559.06;10385544;28;20824;-70
2021/09/02 17:19:36;;;;;;;9.07;3.45;;;;;;;22.52;40.78;100557.38;10383633;28;20154;-70
2021/09/02 17:24:38;;;;;;;9.48;3.58;;;;;;;22.24;41.31;100558.44;10366389;28;20046;-70
2021/09/02 17:29:40;;;;;;;7.57;3.13;;;;;;;21.94;42.05;100556.09;10382867;28;20046;-70
2021/09/02 17:34:42;;;;;;;7.05;3.22;;;;;;;21.80;42.28;100552.13;10384876;28;20473;-70
2021/09/02 17:39:45;;;;;;;5.10;3.28;;;;;;;21.60;42.47;100561.16;10383239;28;20052;-70
2021/09/02 17:44:47;;;;;;;5.25;3.10;;;;;;;21.39;43.20;100556.09;10382845;28;20053;-70
2021/09/02 17:49:49;;;;;;;7.30;3.42;;;;;;;21.12;43.42;100549.81;10384937;28;20503;-70
2021/09/02 17:54:51;;;;;;;7.90;3.25;;;;;;;20.87;44.31;100552.13;10384882;28;20144;-70
2021/09/02 17:59:52;;;;;;;9.35;3.70;;;;;;;20.58;44.57;100551.28;10384973;28;20353;-70
2021/09/02 18:04:55;;;;;;;9.20;3.70;;;;;;;20.41;45.22;100546.66;10381818;28;20059;-70
2021/09/02 18:09:57;;;;;;;11.48;4.30;;;;;;;20.17;45.99;100556.84;10382926;28;20056;-70
2021/09/02 18:14:59;;;;;;;7.03;4.03;;;;;;;19.94;46.69;100556.25;10381500;28;20128;-70
2021/09/02 18:20:01;;;;;;;8.20;4.03;;;;;;;19.75;47.12;100569.41;10380564;28;20169;-69
2021/09/02 18:25:04;;;;;;;9.38;4.13;;;;;;;19.54;47.87;100570.47;10383142;28;20061;-70
2021/09/02 18:30:06;;;;;;;8.35;5.25;;;;;;;19.41;48.45;100568.03;10382540;28;20357;-70
2021/09/02 18:35:09;;;;;;;9.02;5.00;;;;;;;19.24;49.45;100572.13;10388322;28;20064;-70
2021/09/02 18:40:11;;;;;;;11.73;5.28;;;;;;;19.10;49.98;100569.81;10391663;28;20121;-70
2021/09/02 18:45:16;;;;;;;11.45;5.32;;;;;;;18.78;50.27;100576.09;10389354;28;20132;-70
2021/09/02 18:50:18;;;;;;;8.65;5.43;;;;;;;18.57;51.14;100574.28;10391692;28;20128;-70
2021/09/02 18:55:20;;;;;;;8.60;5.22;;;;;;;18.41;51.73;100579.16;10390972;28;20433;-70
2021/09/02 19:00:22;;;;;;;8.45;5.45;;;;;;;18.28;52.37;100575.00;10389947;28;20073;-67
2021/09/02 19:05:28;;;;;;;8.00;5.68;;;;;;;18.21;53.06;100576.44;10390572;28;20100;-66
2021/09/02 19:10:30;;;;;;;12.40;6.28;;;;;;;17.81;53.09;100579.59;10390097;28;20115;-67
2021/09/02 19:15:33;;;;;;;11.65;6.57;;;;;;;17.75;54.25;100585.38;10387623;28;20308;-67
2021/09/02 19:20:36;;;;;;;12.13;5.97;;;;;;;17.78;54.16;100585.16;10390800;28;20540;-67
2021/09/02 19:25:41;;;;;;;13.23;5.63;;;;;;;17.66;55.06;100578.19;10389073;28;20053;-66
2021/09/02 19:30:45;;;;;;;10.40;5.90;;;;;;;17.51;55.68;100582.03;10390508;28;20937;-66
2021/09/02 19:35:49;;;;;;;10.68;6.43;;;;;;;17.07;56.59;100581.94;10389893;28;20144;-67
2021/09/02 19:40:54;;;;;;;14.23;6.38;;;;;;;16.99;57.34;100590.47;10389472;28;20135;-67
2021/09/02 19:45:56;;;;;;;11.00;6.10;;;;;;;17.09;57.29;100585.31;10389212;28;20069;-66
2021/09/02 19:50:59;;;;;;;9.57;6.10;;;;;;;16.82;57.68;100587.41;10388592;28;20698;-67
2021/09/02 19:56:26;;;;;;;11.45;6.57;;;;;;;16.35;58.71;100587.41;10388672;28;20041;-66
2021/09/02 20:01:28;;;;;;;8.70;6.03;;;;;;;16.37;58.70;100586.34;10389041;28;20475;-67
2021/09/02 20:06:39;;;;;;;9.05;6.25;;;;;;;16.48;59.08;100590.88;10388677;28;20099;-67
2021/09/02 20:11:48;;;;;;;9.35;7.07;;;;;;;16.37;58.72;100578.41;10388127;28;20148;-67
2021/09/02 20:16:50;;;;;;;11.73;6.40;;;;;;;16.19;59.42;100587.69;10388036;28;20049;-67
2021/09/02 20:21:52;;;;;;;10.27;5.97;;;;;;;16.22;59.54;100587.47;10388658;28;20053;-67
2021/09/02 20:26:54;;;;;;;10.52;6.65;;;;;;;16.23;59.39;100586.50;10387275;28;20632;-67
2021/09/02 20:31:56;;;;;;;14.27;7.60;;;;;;;16.17;59.68;100589.59;10370006;28;20057;-67
2021/09/02 20:37:07;;;;;;;9.95;6.90;;;;;;;15.88;59.78;100585.56;10386577;28;20064;-67
2021/09/02 20:42:17;;;;;;;10.60;6.82;;;;;;;15.71;60.62;100581.50;10387115;28;20502;-67
2021/09/02 20:47:20;;;;;;;11.35;6.97;;;;;;;15.77;60.65;100580.22;10387415;28;20513;-67
2021/09/02 20:52:27;;;;;;;11.77;7.93;;;;;;;15.82;60.67;100589.47;10385143;28;20056;-67
2021/09/02 20:57:29;;;;;;;11.07;7.28;;;;;;;15.57;60.79;100589.50;10386523;28;20147;-67
2021/09/02 21:02:32;;;;;;;11.40;7.13;;;;;;;15.26;61.32;100582.03;10387104;28;20476;-67
2021/09/02 21:07:34;;;;;;;9.85;7.30;;;;;;;15.28;61.43;100582.75;10385445;28;20072;-67
2021/09/02 21:12:39;;;;;;;13.23;6.72;;;;;;;15.36;61.37;100585.72;10386243;28;20061;-66
2021/09/02 21:17:41;;;;;;;12.23;6.90;;;;;;;15.38;61.38;100579.41;10384650;28;20128;-67
2021/09/02 21:22:48;;;;;;;14.30;7.70;;;;;;;15.15;61.16;100584.53;10385939;28;20053;-66
2021/09/02 21:28:05;;;;;;;11.30;7.43;;;;;;;15.07;62.33;100587.72;10384440;28;20053;-66
2021/09/02 21:33:15;;;;;;;9.48;7.35;;;;;;;15.04;62.15;100581.81;10385240;28;20090;-66
2021/09/02 21:38:20;;;;;;;12.80;7.38;;;;;;;15.01;61.92;100582.00;10385078;28;20520;-66
2021/09/02 21:43:33;;;;;;;13.70;7.68;;;;;;;14.63;62.51;100573.19;10385143;28;20049;-66
2021/09/02 21:48:41;;;;;;;16.13;7.43;;;;;;;14.48;63.15;100589.03;10383731;28;20049;-66
2021/09/02 21:53:45;;;;;;;11.82;7.43;;;;;;;14.59;63.02;100583.09;10384799;28;20053;-66
2021/09/02 21:58:50;;;;;;;12.82;7.60;;;;;;;14.64;63.04;100585.41;10384471;28;20490;-66
2021/09/02 22:03:55;;;;;;;10.05;7.57;;;;;;;14.47;62.54;100578.59;10384736;28;20057;-66
2021/09/02 22:09:01;;;;;;;11.52;8.18;;;;;;;14.42;63.31;100584.16;10384442;28;20049;-66
2021/09/02 22:14:13;;;;;;;10.07;7.40;;;;;;;14.47;63.05;100584.69;10384909;28;20131;-66
2021/09/02 22:19:26;;;;;;;14.50;7.32;;;;;;;14.48;63.20;100577.66;10383890;28;20049;-66
2021/09/02 22:24:33;;;;;;;16.48;7.95;;;;;;;14.41;63.31;100571.94;10383698;28;20140;-66
2021/09/02 22:29:36;;;;;;;13.07;7.28;;;;;;;14.38;63.44;100577.41;10383461;28;20060;-66
2021/09/02 22:34:39;;;;;;;12.13;7.10;;;;;;;14.35;63.30;100579.41;10383849;28;20398;-66
2021/09/02 22:39:42;;;;;;;11.77;7.53;;;;;;;14.34;63.44;100572.44;10381516;28;20053;-66
2021/09/02 22:44:45;;;;;;;9.65;7.50;;;;;;;14.28;63.34;100562.31;10383000;28;20135;-66
2021/09/02 22:49:47;;;;;;;13.25;7.85;;;;;;;14.20;63.59;100565.47;10383412;28;20060;-66
2021/09/02 22:54:50;;;;;;;11.75;7.47;;;;;;;14.20;63.41;100557.56;10383119;28;20425;-65
2021/09/02 22:59:54;;;;;;;9.88;7.20;;;;;;;14.19;63.50;100560.25;10382332;28;20172;-66
2021/09/02 23:04:56;;;;;;;12.38;7.85;;;;;;;14.15;63.35;100554.38;10383436;28;20051;-66